Aérodrome :
LOGIN :

S'inscrire | Disclaimer

   EN    FR    IT 

 










Légende :    VFR   VFR Marginal   IFR   IFR Intensif   IFR Très Intensif
Visi : 
Plafond : 
>= 8 km
>= 3000ft
5 à 8 km
1000 à 3000 ft
1500m à 5 km
500 à 1000 ft
800 à 1500m
200 à 500 ft
< 800m
< 200 ft
Symboles :   Orages  Brouillard  Fortes neiges  Fortes précipitations  Vent > 20 kt
SIGMETs :   Divers  Orages  Givrage  Turbulence  Onde Orograph.  Cendres Volcan.






- Altitude de l'aérodrome : 147 ft
- Code IATA : DUS


EDDL - Düsseldorf Int.

DERNIER METAR :
  • 282150Z AUTO 16008KT CAVOK 06/02 Q1019 NOSIG

METARs EXPIRÉS :
  • 282120Z AUTO 16008KT CAVOK 06/02 Q1019 NOSIG
  • 282050Z AUTO 15010KT CAVOK 06/02 Q1019 NOSIG
  • 282020Z AUTO 16009KT CAVOK 07/03 Q1019 NOSIG
  • 281950Z AUTO 15008KT CAVOK 07/03 Q1019 NOSIG
  • 281920Z AUTO 15007KT CAVOK 07/02 Q1020 NOSIG
  • 281850Z AUTO 15007KT CAVOK 07/02 Q1020 NOSIG
  • 281820Z AUTO 15004KT 120V180 CAVOK 07/01 Q1020 NOSIG
  • 281750Z AUTO 16004KT 120V180 CAVOK 07/01 Q1020 NOSIG
  • 281720Z AUTO 18005KT CAVOK 07/02 Q1020 NOSIG

TAF TAF EDDL
Valide du 28 à 18h jusqu'au 01 à 00h UTC


281700Z 2818/2924 18006KT CAVOK
BECMG 2822/2901 15012KT
PROB30
TEMPO 2910/2912 17015G25KT



MET'MAP, la Météo Aéronautique d'un coup d'oeil ! - Copyright ORBIFLY Décembre 2007 - Disclaimer

ORBIFLY MET'MAP TEAM :

Programmation & Développement : Alexandra Zaïnal
Sur une idée originale de : Baudouin d'Aumeries
Soutien technique & logistique : Manuel Goepfert
Assistance : Marc-Olivier Méhu




SOURCES & CREDITS :

   NOAA